Time;durP1;ratioP1;P1;durP2;ratioP2;P2;SDS_P1;SDS_P2;PMS_P1;PMS_P2;Temp;Humidity;BMP_temperature;BMP_pressure;BME280_temperature;BME280_humidity;BME280_pressure;Samples;Min_cycle;Max_cycle;Signal;HPM_P1;HPM_P2
2022/09/05 00:04:11;;;;;;;6.38;5.53;;;;;;;;;;10301114;28;20072;-81
2022/09/05 00:09:17;;;;;;;5.38;4.88;;;;;;;;;;10302651;28;20062;-78
2022/09/05 00:14:36;;;;;;;5.38;4.65;;;;;;;;;;10300834;28;20066;-79
2022/09/05 00:19:44;;;;;;;4.57;4.18;;;;;;;;;;10300932;28;20023;-79
2022/09/05 00:24:52;;;;;;;4.40;4.00;;;;;;;;;;10285957;28;20486;-77
2022/09/05 00:30:00;;;;;;;5.40;4.45;;;;;;;;;;10289094;28;20053;-79
2022/09/05 00:35:18;;;;;;;5.45;4.95;;;;;;;;;;10294180;28;20039;-78
2022/09/05 00:40:24;;;;;;;5.20;4.55;;;;;;;;;;10295804;28;20513;-79
2022/09/05 00:45:28;;;;;;;8.32;4.95;;;;;;;;;;10296091;28;20102;-78
2022/09/05 00:50:28;;;;;;;4.82;4.43;;;;;;;;;;10291320;28;20045;-77
2022/09/05 00:55:36;;;;;;;5.90;5.30;;;;;;;;;;10284482;28;20035;-77
2022/09/05 01:00:47;;;;;;;6.25;5.10;;;;;;;;;;10286640;28;20046;-78
2022/09/05 01:05:47;;;;;;;5.40;4.90;;;;;;;;;;10286272;28;20387;-78
2022/09/05 01:10:48;;;;;;;4.97;4.43;;;;;;;;;;10289620;28;20049;-79
2022/09/05 01:15:52;;;;;;;9.25;5.35;;;;;;;;;;10291014;28;20037;-77
2022/09/05 01:21:00;;;;;;;6.53;5.32;;;;;;;;;;10295443;28;20542;-77
2022/09/05 01:26:03;;;;;;;4.90;4.40;;;;;;;;;;10297917;28;20055;-77
2022/09/05 01:31:21;;;;;;;5.60;5.00;;;;;;;;;;10286640;28;20060;-77
2022/09/05 01:36:31;;;;;;;5.43;4.93;;;;;;;;;;10284728;28;20090;-79
2022/09/05 01:41:35;;;;;;;9.07;5.25;;;;;;;;;;10293604;28;20042;-77
2022/09/05 01:46:38;;;;;;;5.63;4.80;;;;;;;;;;10283362;28;20041;-77
2022/09/05 01:51:58;;;;;;;6.10;5.15;;;;;;;;;;10286695;28;20049;-78
2022/09/05 01:57:06;;;;;;;5.72;5.13;;;;;;;;;;10285833;28;20035;-78
2022/09/05 02:02:10;;;;;;;5.78;5.13;;;;;;;;;;10287060;28;20039;-78
2022/09/05 02:07:32;;;;;;;5.32;4.68;;;;;;;;;;10292984;28;20042;-78
2022/09/05 02:12:46;;;;;;;5.67;5.07;;;;;;;;;;10284647;28;20050;-77
2022/09/05 02:17:55;;;;;;;6.43;5.20;;;;;;;;;;10288572;28;20023;-77
2022/09/05 02:23:06;;;;;;;6.25;5.22;;;;;;;;;;10291571;28;20039;-79
2022/09/05 02:28:45;;;;;;;5.85;5.25;;;;;;;;;;10284976;28;20038;-77
2022/09/05 02:34:08;;;;;;;6.28;5.63;;;;;;;;;;10122775;29;20052;-77
2022/09/05 02:39:16;;;;;;;5.32;4.80;;;;;;;;;;10250242;28;20553;-77
2022/09/05 02:44:26;;;;;;;6.57;4.68;;;;;;;;;;10282987;28;20054;-77
2022/09/05 02:49:38;;;;;;;6.07;5.47;;;;;;;;;;10274085;28;20034;-78
2022/09/05 02:54:41;;;;;;;5.53;5.03;;;;;;;;;;10282251;28;20411;-76
2022/09/05 03:00:21;;;;;;;5.38;4.50;;;;;;;;;;10281645;28;20444;-77
2022/09/05 03:05:25;;;;;;;6.00;5.40;;;;;;;;;;10120464;29;20142;-77
2022/09/05 03:10:39;;;;;;;6.05;5.43;;;;;;;;;;10249134;28;20059;-78
2022/09/05 03:15:43;;;;;;;6.05;5.45;;;;;;;;;;10287445;28;20916;-77
2022/09/05 03:21:02;;;;;;;6.35;5.75;;;;;;;;;;10304406;28;20043;-77
2022/09/05 03:26:21;;;;;;;6.28;5.43;;;;;;;;;;10291604;28;20778;-78
2022/09/05 03:31:22;;;;;;;6.25;5.65;;;;;;;;;;10287712;28;20406;-78
2022/09/05 03:36:22;;;;;;;6.53;5.83;;;;;;;;;;10283566;28;20065;-76
2022/09/05 03:41:30;;;;;;;6.07;5.47;;;;;;;;;;10290484;28;20068;-77
2022/09/05 03:46:41;;;;;;;6.22;5.63;;;;;;;;;;10287370;28;20046;-78
2022/09/05 03:52:00;;;;;;;6.15;5.53;;;;;;;;;;10291561;28;20046;-76
2022/09/05 03:57:19;;;;;;;7.70;5.72;;;;;;;;;;10291303;28;20035;-76
2022/09/05 04:02:25;;;;;;;6.68;5.43;;;;;;;;;;10300582;28;20038;-77
2022/09/05 04:07:30;;;;;;;6.03;5.38;;;;;;;;;;10305080;28;20097;-77
2022/09/05 04:12:35;;;;;;;6.60;5.90;;;;;;;;;;10302836;28;20047;-77
2022/09/05 04:17:38;;;;;;;6.85;5.75;;;;;;;;;;10302366;28;20031;-77
2022/09/05 04:22:39;;;;;;;7.07;6.38;;;;;;;;;;10294055;28;20517;-79
2022/09/05 04:27:47;;;;;;;5.90;5.40;;;;;;;;;;10288125;28;20045;-77
2022/09/05 04:32:56;;;;;;;7.45;5.93;;;;;;;;;;10289275;28;20305;-78
2022/09/05 04:38:12;;;;;;;5.60;5.10;;;;;;;;;;10293990;28;20042;-79
2022/09/05 04:43:17;;;;;;;9.10;6.10;;;;;;;;;;10300847;28;20142;-78
2022/09/05 04:48:20;;;;;;;6.40;5.80;;;;;;;;;;10294846;28;20035;-79
2022/09/05 04:53:30;;;;;;;6.03;5.40;;;;;;;;;;10300536;28;20057;-79
2022/09/05 04:58:37;;;;;;;6.15;5.38;;;;;;;;;;10306789;28;20039;-79
2022/09/05 05:03:38;;;;;;;7.35;6.07;;;;;;;;;;10307246;28;20451;-80
2022/09/05 05:08:43;;;;;;;6.13;5.50;;;;;;;;;;10310794;28;20046;-79
2022/09/05 05:13:46;;;;;;;6.45;5.43;;;;;;;;;;10300008;28;20422;-79
2022/09/05 05:18:52;;;;;;;5.82;5.22;;;;;;;;;;10291861;28;20039;-78
2022/09/05 05:23:54;;;;;;;5.28;4.78;;;;;;;;;;10290451;28;20042;-79
2022/09/05 05:29:05;;;;;;;5.88;5.32;;;;;;;;;;10279212;28;20035;-78
2022/09/05 05:34:13;;;;;;;6.65;6.05;;;;;;;;;;10299561;28;20140;-77
2022/09/05 05:39:19;;;;;;;6.97;6.28;;;;;;;;;;10289431;28;20441;-73
2022/09/05 05:44:26;;;;;;;7.07;6.05;;;;;;;;;;10279644;28;20251;-72
2022/09/05 05:49:33;;;;;;;7.75;6.95;;;;;;;;;;10283295;28;20392;-73
2022/09/05 05:54:41;;;;;;;7.93;7.13;;;;;;;;;;10279293;28;20085;-74
2022/09/05 05:59:51;;;;;;;12.57;8.15;;;;;;;;;;10302272;28;20050;-73
2022/09/05 06:04:51;;;;;;;8.80;7.20;;;;;;;;;;10281439;28;20474;-73
2022/09/05 06:10:07;;;;;;;7.67;6.50;;;;;;;;;;10282519;28;20038;-72
2022/09/05 06:15:37;;;;;;;8.75;7.80;;;;;;;;;;10285558;28;20093;-73
2022/09/05 06:20:40;;;;;;;7.53;6.82;;;;;;;;;;10278720;28;20050;-73
2022/09/05 06:25:58;;;;;;;7.47;6.78;;;;;;;;;;10252538;28;20106;-73
2022/09/05 06:31:33;;;;;;;9.57;7.03;;;;;;;;;;10277857;28;20057;-74
2022/09/05 06:36:54;;;;;;;7.03;6.35;;;;;;;;;;10281067;28;20118;-74
2022/09/05 06:42:17;;;;;;;6.60;6.00;;;;;;;;;;10282224;28;20133;-77
2022/09/05 06:47:18;;;;;;;8.00;6.73;;;;;;;;;;10283324;28;20035;-74
2022/09/05 06:52:38;;;;;;;7.15;6.45;;;;;;;;;;10278731;28;20073;-74
2022/09/05 06:57:56;;;;;;;7.28;6.40;;;;;;;;;;10281943;28;20027;-73
2022/09/05 07:03:09;;;;;;;6.47;5.88;;;;;;;;;;10280548;28;20042;-75
2022/09/05 07:08:39;;;;;;;7.32;6.60;;;;;;;;;;10288184;28;20061;-74
2022/09/05 07:13:48;;;;;;;6.75;6.05;;;;;;;;;;10209284;28;20058;-74
2022/09/05 07:18:49;;;;;;;8.18;7.38;;;;;;;;;;10282891;28;20072;-74
2022/09/05 07:24:24;;;;;;;8.07;7.28;;;;;;;;;;10284912;28;20053;-73
2022/09/05 07:29:31;;;;;;;7.25;6.50;;;;;;;;;;10282605;28;20041;-74
2022/09/05 07:34:33;;;;;;;6.80;6.10;;;;;;;;;;10281670;28;20054;-74
2022/09/05 07:39:38;;;;;;;5.93;5.30;;;;;;;;;;10265005;28;20035;-73
2022/09/05 07:44:42;;;;;;;6.43;5.65;;;;;;;;;;10278976;28;20031;-75
2022/09/05 07:49:44;;;;;;;6.22;5.18;;;;;;;;;;10281762;28;20046;-74
2022/09/05 07:54:45;;;;;;;5.05;4.60;;;;;;;;;;10281784;28;20042;-74
2022/09/05 07:59:47;;;;;;;5.78;5.20;;;;;;;;;;10281302;28;20196;-74
2022/09/05 08:04:48;;;;;;;8.40;5.00;;;;;;;;;;10281642;28;20117;-72
2022/09/05 08:09:52;;;;;;;5.50;4.60;;;;;;;;;;10287662;28;20618;-74
2022/09/05 08:14:52;;;;;;;5.57;5.05;;;;;;;;;;10282755;28;20042;-75
2022/09/05 08:20:18;;;;;;;4.75;4.25;;;;;;;;;;10290982;28;20038;-74
2022/09/05 08:25:21;;;;;;;3.75;3.20;;;;;;;;;;10302960;28;20482;-73
2022/09/05 08:30:22;;;;;;;3.25;3.03;;;;;;;;;;10289663;28;20045;-74
2022/09/05 08:35:38;;;;;;;3.95;3.65;;;;;;;;;;10284848;28;20043;-74
2022/09/05 08:40:57;;;;;;;3.30;3.05;;;;;;;;;;10288338;28;20042;-74
2022/09/05 08:45:59;;;;;;;3.83;3.30;;;;;;;;;;10289359;28;20047;-75
2022/09/05 08:51:01;;;;;;;;;;;;;;;;;;10290229;28;20066;-74
2022/09/05 08:56:09;;;;;;;4.95;3.70;;;;;;;;;;10300771;28;19918;-80
2022/09/05 09:01:28;;;;;;;8.85;6.85;;;;;;;;;;10313094;28;20069;-74
2022/09/05 09:06:46;;;;;;;3.25;2.80;;;;;;;;;;10283274;28;20482;-77
2022/09/05 09:11:47;;;;;;;4.20;3.33;;;;;;;;;;10293594;28;20411;-74
2022/09/05 09:17:01;;;;;;;3.15;2.90;;;;;;;;;;10290346;28;20050;-75
2022/09/05 09:22:17;;;;;;;3.53;2.80;;;;;;;;;;10286263;28;20042;-75
2022/09/05 09:27:26;;;;;;;3.83;3.00;;;;;;;;;;10282905;28;20084;-74
2022/09/05 09:32:28;;;;;;;3.72;3.08;;;;;;;;;;10288766;28;20497;-74
2022/09/05 09:37:49;;;;;;;3.10;2.90;;;;;;;;;;10274127;28;20030;-75
2022/09/05 09:42:56;;;;;;;5.05;3.63;;;;;;;;;;10288707;28;20030;-74
2022/09/05 09:48:09;;;;;;;3.67;3.38;;;;;;;;;;10281689;28;20038;-78
2022/09/05 09:53:28;;;;;;;3.90;2.85;;;;;;;;;;10286021;28;20043;-73
2022/09/05 09:58:35;;;;;;;3.75;2.90;;;;;;;;;;10286772;28;20030;-77
2022/09/05 10:03:51;;;;;;;3.38;3.08;;;;;;;;;;10285181;28;20447;-75
2022/09/05 10:09:20;;;;;;;3.38;2.90;;;;;;;;;;10284863;28;20046;-74
2022/09/05 10:14:44;;;;;;;3.15;2.85;;;;;;;;;;10266881;28;20475;-76
2022/09/05 10:19:51;;;;;;;9.63;7.72;;;;;;;;;;10279946;28;20066;-73
2022/09/05 10:25:07;;;;;;;4.60;3.88;;;;;;;;;;10305875;28;20073;-71
2022/09/05 10:30:09;;;;;;;3.92;3.13;;;;;;;;;;10290579;28;20050;-74
2022/09/05 10:35:27;;;;;;;3.78;2.47;;;;;;;;;;10290092;28;20077;-74
2022/09/05 10:40:28;;;;;;;3.22;2.42;;;;;;;;;;10275513;28;20105;-75
2022/09/05 10:45:47;;;;;;;2.67;2.47;;;;;;;;;;10284409;28;20089;-73
2022/09/05 10:50:58;;;;;;;4.18;2.78;;;;;;;;;;10280743;28;20057;-73
2022/09/05 10:55:58;;;;;;;2.85;2.65;;;;;;;;;;10282189;28;20045;-74
2022/09/05 11:01:11;;;;;;;17.07;15.27;;;;;;;;;;10276386;28;20035;-76
2022/09/05 11:06:13;;;;;;;2.50;2.17;;;;;;;;;;10280383;28;20042;-77
2022/09/05 11:11:16;;;;;;;2.53;2.33;;;;;;;;;;10277817;28;20046;-79
2022/09/05 11:16:35;;;;;;;2.55;2.35;;;;;;;;;;10280749;28;20042;-76
2022/09/05 11:21:35;;;;;;;2.78;2.58;;;;;;;;;;10286040;28;20035;-76
2022/09/05 11:26:42;;;;;;;3.13;2.40;;;;;;;;;;10283422;28;20093;-77
2022/09/05 11:31:49;;;;;;;2.47;2.28;;;;;;;;;;10283100;28;20546;-78
2022/09/05 11:36:52;;;;;;;2.75;2.40;;;;;;;;;;10283702;28;20057;-77
2022/09/05 11:42:12;;;;;;;2.55;2.35;;;;;;;;;;10290010;28;20046;-75
2022/09/05 11:47:28;;;;;;;2.25;1.85;;;;;;;;;;10274606;28;20054;-77
2022/09/05 11:52:51;;;;;;;3.55;2.38;;;;;;;;;;10287203;28;20046;-78
2022/09/05 11:58:02;;;;;;;2.63;2.33;;;;;;;;;;10289109;28;20561;-76
2022/09/05 12:03:15;;;;;;;2.40;2.20;;;;;;;;;;10293552;28;20035;-77
2022/09/05 12:08:30;;;;;;;2.28;2.08;;;;;;;;;;10290859;28;20044;-78
2022/09/05 12:13:39;;;;;;;2.38;2.17;;;;;;;;;;10290883;28;20054;-77
2022/09/05 12:18:42;;;;;;;3.33;2.25;;;;;;;;;;10305985;28;20502;-77
2022/09/05 12:23:56;;;;;;;2.75;2.50;;;;;;;;;;10298369;28;20390;-79
2022/09/05 12:28:59;;;;;;;3.13;2.47;;;;;;;;;;10292198;28;20040;-77
2022/09/05 12:34:00;;;;;;;2.45;2.20;;;;;;;;;;10290348;28;20145;-77
2022/09/05 12:39:03;;;;;;;2.15;1.90;;;;;;;;;;10293433;28;20050;-78
2022/09/05 12:44:13;;;;;;;6.00;4.83;;;;;;;;;;10296669;28;20403;-77
2022/09/05 12:49:27;;;;;;;2.45;2.10;;;;;;;;;;10290566;28;20081;-77
2022/09/05 12:54:37;;;;;;;2.38;1.90;;;;;;;;;;10298510;28;20106;-78
2022/09/05 12:59:47;;;;;;;2.78;1.92;;;;;;;;;;10285317;28;20194;-78
2022/09/05 13:04:56;;;;;;;2.45;2.17;;;;;;;;;;10292975;28;20049;-77
2022/09/05 13:09:59;;;;;;;3.75;2.03;;;;;;;;;;10287574;28;20483;-78
2022/09/05 13:15:07;;;;;;;2.30;2.10;;;;;;;;;;10285925;28;20114;-78
2022/09/05 13:20:15;;;;;;;2.28;2.08;;;;;;;;;;10286307;28;20043;-78
2022/09/05 13:25:23;;;;;;;1.75;1.60;;;;;;;;;;10290308;28;20125;-76
2022/09/05 13:30:24;;;;;;;2.60;2.00;;;;;;;;;;10289661;28;20118;-76
2022/09/05 13:35:31;;;;;;;3.53;2.13;;;;;;;;;;10292232;28;20154;-78
2022/09/05 13:40:44;;;;;;;1.92;1.75;;;;;;;;;;10289837;28;20270;-76
2022/09/05 13:46:03;;;;;;;1.80;1.70;;;;;;;;;;10297221;28;20050;-76
2022/09/05 13:51:26;;;;;;;2.13;1.98;;;;;;;;;;10285872;28;20093;-77
2022/09/05 13:56:29;;;;;;;3.92;1.80;;;;;;;;;;10287339;28;20058;-76
2022/09/05 14:01:33;;;;;;;4.28;2.20;;;;;;;;;;10289319;28;20554;-80
2022/09/05 14:06:36;;;;;;;6.60;5.97;;;;;;;;;;10310877;28;20043;-78
2022/09/05 14:11:55;;;;;;;1.90;1.70;;;;;;;;;;10463703;23;20050;-80
2022/09/05 14:17:50;;;;;;;3.28;1.95;;;;;;;;;;10369730;28;20038;-78
2022/09/05 14:23:03;;;;;;;2.53;1.77;;;;;;;;;;10369442;28;20042;-78
2022/09/05 14:28:05;;;;;;;2.42;2.05;;;;;;;;;;10343389;28;20069;-77
2022/09/05 14:33:14;;;;;;;2.00;1.90;;;;;;;;;;10358683;28;20069;-78
2022/09/05 14:38:33;;;;;;;2.65;2.25;;;;;;;;;;10345012;28;20711;-79
2022/09/05 14:43:36;;;;;;;2.50;2.00;;;;;;;;;;10358475;28;20393;-77
2022/09/05 14:48:52;;;;;;;2.40;1.80;;;;;;;;;;10358859;28;20660;-83
2022/09/05 14:54:00;;;;;;;2.65;1.90;;;;;;;;;;10362645;28;20044;-80
2022/09/05 14:59:16;;;;;;;2.35;2.10;;;;;;;;;;10331931;28;20046;-78
2022/09/05 15:04:21;;;;;;;2.38;1.92;;;;;;;;;;10374552;28;20034;-82
2022/09/05 15:09:21;;;;;;;2.20;2.00;;;;;;;;;;10404622;28;20060;-79
2022/09/05 15:14:26;;;;;;;3.37;2.70;;;;;;;;;;10396862;28;20393;-78
2022/09/05 15:19:46;;;;;;;8.43;3.30;;;;;;;;;;10356182;28;20054;-76
2022/09/05 15:24:58;;;;;;;4.15;2.58;;;;;;;;;;10375098;28;20136;-78
2022/09/05 15:30:02;;;;;;;2.30;2.03;;;;;;;;;;10355931;28;20041;-78
2022/09/05 15:35:04;;;;;;;3.22;2.92;;;;;;;;;;10352482;28;20084;-77
2022/09/05 15:40:05;;;;;;;2.25;2.13;;;;;;;;;;10354579;28;20095;-75
2022/09/05 15:45:07;;;;;;;4.90;2.30;;;;;;;;;;10345731;28;20482;-78
2022/09/05 15:50:12;;;;;;;2.65;2.10;;;;;;;;;;10355147;28;20049;-75
2022/09/05 15:55:17;;;;;;;4.57;3.72;;;;;;;;;;10342422;28;20084;-78
2022/09/05 16:00:33;;;;;;;13.23;9.77;;;;;;;;;;10353590;28;20469;-76
2022/09/05 16:05:34;;;;;;;4.35;3.63;;;;;;;;;;10352219;28;20030;-75
2022/09/05 16:10:35;;;;;;;2.70;2.50;;;;;;;;;;10358854;28;20120;-76
2022/09/05 16:15:39;;;;;;;3.03;2.73;;;;;;;;;;10352635;28;20046;-74
2022/09/05 16:20:45;;;;;;;2.50;2.30;;;;;;;;;;10361083;28;20041;-79
2022/09/05 16:25:52;;;;;;;3.90;3.50;;;;;;;;;;10348395;28;20764;-78
2022/09/05 16:31:23;;;;;;;4.70;3.90;;;;;;;;;;10352308;28;20145;-79
2022/09/05 16:36:28;;;;;;;6.43;5.75;;;;;;;;;;10365922;28;20038;-77
2022/09/05 16:41:47;;;;;;;5.55;4.40;;;;;;;;;;10385059;28;20038;-81
2022/09/05 16:47:03;;;;;;;3.25;2.70;;;;;;;;;;10389539;28;20137;-79
2022/09/05 16:52:18;;;;;;;11.68;10.48;;;;;;;;;;10398067;28;20046;-77
2022/09/05 16:57:21;;;;;;;11.85;9.77;;;;;;;;;;10389692;28;20120;-78
2022/09/05 17:02:40;;;;;;;4.60;3.88;;;;;;;;;;10363727;28;20044;-79
2022/09/05 17:07:47;;;;;;;6.35;5.43;;;;;;;;;;10366638;28;20045;-78
2022/09/05 17:12:51;;;;;;;4.25;3.03;;;;;;;;;;10364984;28;20037;-79
2022/09/05 17:17:56;;;;;;;3.80;3.40;;;;;;;;;;10353676;28;20418;-78
2022/09/05 17:23:01;;;;;;;4.63;4.22;;;;;;;;;;10372729;28;20443;-76
2022/09/05 17:28:03;;;;;;;3.95;2.97;;;;;;;;;;10340153;28;20034;-74
2022/09/05 17:33:24;;;;;;;2.75;2.35;;;;;;;;;;10354736;28;20046;-74
2022/09/05 17:38:43;;;;;;;3.22;2.20;;;;;;;;;;10345067;28;20042;-74
2022/09/05 17:43:48;;;;;;;2.63;2.20;;;;;;;;;;10347687;28;20042;-77
2022/09/05 17:48:48;;;;;;;2.42;2.22;;;;;;;;;;10350061;28;20121;-74
2022/09/05 17:53:58;;;;;;;2.60;2.40;;;;;;;;;;10345779;28;20162;-75
2022/09/05 17:59:01;;;;;;;4.03;3.63;;;;;;;;;;10347453;28;20294;-75
2022/09/05 18:04:03;;;;;;;6.72;5.43;;;;;;;;;;10345711;28;20052;-75
2022/09/05 18:09:04;;;;;;;;;;;;;;;;;;10339699;28;20046;-74
2022/09/05 18:14:10;;;;;;;4.30;2.80;;;;;;;;;;10343965;28;20304;-77
2022/09/05 18:19:14;;;;;;;3.83;3.45;;;;;;;;;;10352696;28;20529;-76
2022/09/05 18:24:42;;;;;;;3.65;3.35;;;;;;;;;;10349873;28;20034;-75
2022/09/05 18:30:04;;;;;;;5.30;4.50;;;;;;;;;;10350420;28;20136;-77
2022/09/05 18:35:29;;;;;;;6.18;4.75;;;;;;;;;;10346149;28;20406;-75
2022/09/05 18:40:44;;;;;;;4.80;4.30;;;;;;;;;;10339549;28;20050;-74
2022/09/05 18:45:47;;;;;;;4.60;4.15;;;;;;;;;;10340236;28;20105;-75
2022/09/05 18:50:49;;;;;;;6.45;5.10;;;;;;;;;;10356804;28;20049;-79
2022/09/05 18:55:52;;;;;;;5.63;5.00;;;;;;;;;;10347629;28;20103;-79
2022/09/05 19:00:54;;;;;;;5.97;4.97;;;;;;;;;;10359477;28;20076;-79
2022/09/05 19:05:56;;;;;;;5.75;4.28;;;;;;;;;;10358553;28;20042;-79
2022/09/05 19:10:56;;;;;;;;;;;;;;;;;;10350479;28;20486;-78
2022/09/05 19:16:03;;;;;;;5.50;4.65;;;;;;;;;;10355250;28;19917;-78
2022/09/05 19:21:07;;;;;;;6.63;5.85;;;;;;;;;;10346934;28;20034;-79
2022/09/05 19:26:08;;;;;;;6.15;5.47;;;;;;;;;;10358374;28;20034;-81
2022/09/05 19:31:22;;;;;;;6.38;5.35;;;;;;;;;;10347360;28;20050;-78
2022/09/05 19:36:34;;;;;;;6.30;5.03;;;;;;;;;;10344026;28;20030;-79
2022/09/05 19:41:35;;;;;;;5.88;5.07;;;;;;;;;;10362871;28;20568;-82
2022/09/05 19:46:36;;;;;;;7.70;5.93;;;;;;;;;;10385063;28;20048;-80
2022/09/05 19:51:37;;;;;;;8.65;6.72;;;;;;;;;;10371964;28;20110;-80
2022/09/05 19:56:38;;;;;;;;;;;;;;;;;;10353855;28;20077;-79
2022/09/05 20:01:41;;;;;;;7.15;6.43;;;;;;;;;;10361262;28;19964;-79
2022/09/05 20:06:42;;;;;;;6.10;5.50;;;;;;;;;;10348858;28;20385;-80
2022/09/05 20:11:49;;;;;;;5.97;5.38;;;;;;;;;;10360990;28;20050;-79
2022/09/05 20:16:53;;;;;;;6.45;5.80;;;;;;;;;;10345160;28;20038;-79
2022/09/05 20:21:54;;;;;;;6.88;5.60;;;;;;;;;;10355345;28;20140;-79
2022/09/05 20:26:57;;;;;;;6.05;5.55;;;;;;;;;;10359071;28;20034;-78
2022/09/05 20:31:58;;;;;;;6.03;5.32;;;;;;;;;;10396737;28;20068;-79
2022/09/05 20:37:01;;;;;;;5.25;4.75;;;;;;;;;;10394961;28;20038;-77
2022/09/05 20:42:02;;;;;;;5.63;5.05;;;;;;;;;;10362403;28;20042;-79
2022/09/05 20:47:10;;;;;;;5.60;4.78;;;;;;;;;;10360319;28;20405;-79
2022/09/05 20:52:28;;;;;;;4.93;4.00;;;;;;;;;;10339090;28;20038;-78
2022/09/05 20:57:29;;;;;;;4.47;3.92;;;;;;;;;;10353433;28;20044;-79
2022/09/05 21:02:31;;;;;;;5.15;4.65;;;;;;;;;;10353916;28;20466;-79
2022/09/05 21:07:36;;;;;;;5.10;4.63;;;;;;;;;;10358431;28;20064;-79
2022/09/05 21:12:43;;;;;;;5.05;4.32;;;;;;;;;;10348434;28;20112;-81
2022/09/05 21:17:44;;;;;;;5.13;4.60;;;;;;;;;;10379999;28;20130;-80
2022/09/05 21:22:44;;;;;;;5.50;4.70;;;;;;;;;;10358121;28;20116;-82
2022/09/05 21:27:54;;;;;;;6.13;5.22;;;;;;;;;;10356263;28;20052;-80
2022/09/05 21:32:57;;;;;;;5.95;5.30;;;;;;;;;;10365898;28;20069;-77
2022/09/05 21:38:00;;;;;;;5.07;4.43;;;;;;;;;;10352937;28;20026;-79
2022/09/05 21:43:02;;;;;;;4.93;4.50;;;;;;;;;;10347574;28;20115;-78
2022/09/05 21:48:03;;;;;;;5.78;5.18;;;;;;;;;;10358247;28;20021;-79
2022/09/05 21:53:03;;;;;;;5.57;4.70;;;;;;;;;;10356199;28;20050;-78
2022/09/05 21:58:08;;;;;;;5.47;4.83;;;;;;;;;;10354221;28;20304;-78
2022/09/05 22:03:08;;;;;;;5.18;4.68;;;;;;;;;;10360701;28;20440;-79
2022/09/05 22:08:18;;;;;;;5.72;5.00;;;;;;;;;;10375794;28;20133;-80
2022/09/05 22:13:22;;;;;;;5.95;4.88;;;;;;;;;;10359349;28;20073;-81
2022/09/05 22:18:23;;;;;;;4.93;4.53;;;;;;;;;;10363224;28;20039;-80
2022/09/05 22:23:23;;;;;;;5.75;5.10;;;;;;;;;;10357016;28;20048;-79
2022/09/05 22:28:24;;;;;;;4.95;4.45;;;;;;;;;;10352929;28;20042;-79
2022/09/05 22:33:24;;;;;;;6.18;5.57;;;;;;;;;;10359888;28;20046;-78
2022/09/05 22:38:25;;;;;;;7.05;5.18;;;;;;;;;;10355604;28;20224;-79
2022/09/05 22:43:25;;;;;;;5.07;4.67;;;;;;;;;;10356468;28;20030;-78
2022/09/05 22:48:26;;;;;;;6.80;5.43;;;;;;;;;;10361114;28;20296;-78
2022/09/05 22:53:26;;;;;;;6.77;5.30;;;;;;;;;;10357522;28;20356;-78
2022/09/05 22:58:27;;;;;;;7.30;6.00;;;;;;;;;;10339235;28;20375;-78
2022/09/05 23:03:27;;;;;;;6.47;5.88;;;;;;;;;;10356528;28;20308;-77
2022/09/05 23:08:27;;;;;;;6.43;5.82;;;;;;;;;;10357905;28;20069;-78
2022/09/05 23:13:28;;;;;;;5.90;5.18;;;;;;;;;;10352744;28;20049;-79
2022/09/05 23:18:29;;;;;;;5.43;4.93;;;;;;;;;;10366339;28;20131;-80
2022/09/05 23:23:29;;;;;;;6.93;5.15;;;;;;;;;;10366119;28;20030;-78
2022/09/05 23:28:31;;;;;;;6.57;5.97;;;;;;;;;;10350486;28;20069;-77
2022/09/05 23:33:31;;;;;;;5.70;5.10;;;;;;;;;;10347992;28;20082;-77
2022/09/05 23:38:32;;;;;;;5.93;5.32;;;;;;;;;;10355964;28;20079;-78
2022/09/05 23:43:32;;;;;;;5.97;5.38;;;;;;;;;;10345865;28;20061;-78
2022/09/05 23:48:33;;;;;;;6.10;5.60;;;;;;;;;;10355127;28;20042;-78
2022/09/05 23:53:33;;;;;;;6.05;5.45;;;;;;;;;;10363353;28;20048;-80
2022/09/05 23:58:34;;;;;;;6.07;5.47;;;;;;;;;;10356776;28;20078;-80
